sensor_id;sensor_type;location;lat;lon;timestamp;pressure;altitude;pressure_sealevel;temperature;humidity
19576;BME280;41589;51.196;7.074;2023-02-03T00:01:23;99850.16;;;8.33;100.00
19576;BME280;41589;51.196;7.074;2023-02-03T00:06:24;99841.00;;;8.29;100.00
19576;BME280;41589;51.196;7.074;2023-02-03T00:11:25;99847.34;;;8.33;100.00
19576;BME280;41589;51.196;7.074;2023-02-03T00:16:29;99832.59;;;8.29;100.00
19576;BME280;41589;51.196;7.074;2023-02-03T00:21:30;99822.94;;;8.30;100.00
19576;BME280;41589;51.196;7.074;2023-02-03T00:26:30;99822.66;;;8.24;100.00
19576;BME280;41589;51.196;7.074;2023-02-03T00:31:31;99820.09;;;8.33;100.00
19576;BME280;41589;51.196;7.074;2023-02-03T00:36:32;99810.94;;;8.29;100.00
19576;BME280;41589;51.196;7.074;2023-02-03T00:41:32;99810.50;;;8.31;100.00
19576;BME280;41589;51.196;7.074;2023-02-03T00:46:32;99811.38;;;8.28;100.00
19576;BME280;41589;51.196;7.074;2023-02-03T00:51:36;99806.19;;;8.26;100.00
19576;BME280;41589;51.196;7.074;2023-02-03T00:56:39;99817.34;;;8.30;100.00
19576;BME280;41589;51.196;7.074;2023-02-03T01:01:42;99806.13;;;8.30;100.00
19576;BME280;41589;51.196;7.074;2023-02-03T01:06:42;99812.91;;;8.32;100.00
19576;BME280;41589;51.196;7.074;2023-02-03T01:11:43;99824.53;;;8.31;100.00
19576;BME280;41589;51.196;7.074;2023-02-03T01:16:44;99837.63;;;8.37;100.00
19576;BME280;41589;51.196;7.074;2023-02-03T01:21:44;99855.38;;;8.31;100.00
19576;BME280;41589;51.196;7.074;2023-02-03T01:26:47;99856.03;;;8.38;100.00
19576;BME280;41589;51.196;7.074;2023-02-03T01:31:48;99850.00;;;8.40;100.00
19576;BME280;41589;51.196;7.074;2023-02-03T01:36:49;99860.06;;;8.37;100.00
19576;BME280;41589;51.196;7.074;2023-02-03T01:41:49;99849.50;;;8.45;100.00
19576;BME280;41589;51.196;7.074;2023-02-03T01:46:50;99851.66;;;8.37;100.00
19576;BME280;41589;51.196;7.074;2023-02-03T01:51:51;99862.31;;;8.46;100.00
19576;BME280;41589;51.196;7.074;2023-02-03T01:56:55;99864.47;;;8.38;100.00
19576;BME280;41589;51.196;7.074;2023-02-03T02:01:59;99852.25;;;8.49;100.00
19576;BME280;41589;51.196;7.074;2023-02-03T02:07:00;99846.94;;;8.54;100.00
19576;BME280;41589;51.196;7.074;2023-02-03T02:12:01;99849.72;;;8.54;100.00
19576;BME280;41589;51.196;7.074;2023-02-03T02:17:58;99853.69;;;8.57;100.00
19576;BME280;41589;51.196;7.074;2023-02-03T02:33:22;99812.53;;;8.50;100.00
19576;BME280;41589;51.196;7.074;2023-02-03T02:44:01;99798.94;;;8.49;100.00
19576;BME280;41589;51.196;7.074;2023-02-03T02:54:22;99819.66;;;8.55;100.00
19576;BME280;41589;51.196;7.074;2023-02-03T02:59:24;99829.56;;;8.59;100.00
19576;BME280;41589;51.196;7.074;2023-02-03T03:04:26;99827.72;;;8.53;100.00
19576;BME280;41589;51.196;7.074;2023-02-03T03:09:40;99792.81;;;8.54;100.00
19576;BME280;41589;51.196;7.074;2023-02-03T03:14:49;99773.00;;;8.61;100.00
19576;BME280;41589;51.196;7.074;2023-02-03T03:19:54;99779.28;;;8.49;100.00
19576;BME280;41589;51.196;7.074;2023-02-03T03:25:27;99792.88;;;8.50;100.00
19576;BME280;41589;51.196;7.074;2023-02-03T03:30:33;99808.22;;;8.46;100.00
19576;BME280;41589;51.196;7.074;2023-02-03T03:35:52;99825.97;;;8.59;100.00
19576;BME280;41589;51.196;7.074;2023-02-03T03:41:37;99821.59;;;8.58;100.00
19576;BME280;41589;51.196;7.074;2023-02-03T03:46:44;99803.53;;;8.59;100.00
19576;BME280;41589;51.196;7.074;2023-02-03T03:51:58;99798.25;;;8.61;100.00
19576;BME280;41589;51.196;7.074;2023-02-03T03:57:14;99810.44;;;8.54;100.00
19576;BME280;41589;51.196;7.074;2023-02-03T04:02:27;99805.84;;;8.44;100.00
19576;BME280;41589;51.196;7.074;2023-02-03T04:07:40;99802.97;;;8.48;100.00
19576;BME280;41589;51.196;7.074;2023-02-03T04:12:41;99788.50;;;8.49;100.00
19576;BME280;41589;51.196;7.074;2023-02-03T04:17:42;99794.91;;;8.50;100.00
19576;BME280;41589;51.196;7.074;2023-02-03T04:22:45;99804.25;;;8.63;100.00
19576;BME280;41589;51.196;7.074;2023-02-03T04:27:55;99798.69;;;8.59;100.00
19576;BME280;41589;51.196;7.074;2023-02-03T04:32:58;99786.25;;;8.60;100.00
19576;BME280;41589;51.196;7.074;2023-02-03T04:38:08;99802.25;;;8.63;100.00
19576;BME280;41589;51.196;7.074;2023-02-03T04:43:09;99797.66;;;8.53;100.00
19576;BME280;41589;51.196;7.074;2023-02-03T04:48:14;99791.06;;;8.60;100.00
19576;BME280;41589;51.196;7.074;2023-02-03T04:53:15;99791.88;;;8.60;100.00
19576;BME280;41589;51.196;7.074;2023-02-03T04:58:23;99781.06;;;8.59;100.00
19576;BME280;41589;51.196;7.074;2023-02-03T05:03:25;99765.13;;;8.56;100.00
19576;BME280;41589;51.196;7.074;2023-02-03T05:08:31;99780.28;;;8.58;100.00
19576;BME280;41589;51.196;7.074;2023-02-03T05:13:34;99768.34;;;8.54;100.00
19576;BME280;41589;51.196;7.074;2023-02-03T05:18:34;99758.38;;;8.53;100.00
19576;BME280;41589;51.196;7.074;2023-02-03T05:23:44;99755.19;;;8.51;100.00
19576;BME280;41589;51.196;7.074;2023-02-03T05:28:44;99751.88;;;8.56;100.00
19576;BME280;41589;51.196;7.074;2023-02-03T05:33:51;99753.59;;;8.50;100.00
19576;BME280;41589;51.196;7.074;2023-02-03T05:38:57;99756.84;;;8.49;100.00
19576;BME280;41589;51.196;7.074;2023-02-03T05:43:58;99769.16;;;8.55;100.00
19576;BME280;41589;51.196;7.074;2023-02-03T05:49:01;99774.75;;;8.55;100.00
19576;BME280;41589;51.196;7.074;2023-02-03T05:54:02;99763.88;;;8.57;100.00
19576;BME280;41589;51.196;7.074;2023-02-03T05:59:03;99781.16;;;8.55;100.00
19576;BME280;41589;51.196;7.074;2023-02-03T06:04:12;99782.44;;;8.51;100.00
19576;BME280;41589;51.196;7.074;2023-02-03T06:09:16;99779.94;;;8.56;100.00
19576;BME280;41589;51.196;7.074;2023-02-03T06:14:24;99787.03;;;8.61;100.00
19576;BME280;41589;51.196;7.074;2023-02-03T06:19:27;99764.25;;;8.59;100.00
19576;BME280;41589;51.196;7.074;2023-02-03T06:30:58;99787.56;;;8.56;100.00
19576;BME280;41589;51.196;7.074;2023-02-03T06:42:25;99774.19;;;8.63;100.00
19576;BME280;41589;51.196;7.074;2023-02-03T06:47:45;99779.41;;;8.61;100.00
19576;BME280;41589;51.196;7.074;2023-02-03T06:52:49;99786.25;;;8.60;100.00
19576;BME280;41589;51.196;7.074;2023-02-03T06:58:27;99777.78;;;8.64;100.00
19576;BME280;41589;51.196;7.074;2023-02-03T07:03:28;99786.53;;;8.66;100.00
19576;BME280;41589;51.196;7.074;2023-02-03T07:08:28;99784.63;;;8.63;100.00
19576;BME280;41589;51.196;7.074;2023-02-03T07:13:37;99781.00;;;8.62;100.00
19576;BME280;41589;51.196;7.074;2023-02-03T07:18:43;99787.84;;;8.61;100.00
19576;BME280;41589;51.196;7.074;2023-02-03T07:23:56;99795.75;;;8.66;100.00
19576;BME280;41589;51.196;7.074;2023-02-03T07:28:56;99793.88;;;8.60;100.00
19576;BME280;41589;51.196;7.074;2023-02-03T07:34:08;99796.03;;;8.52;100.00
19576;BME280;41589;51.196;7.074;2023-02-03T07:39:11;99792.59;;;8.64;100.00
19576;BME280;41589;51.196;7.074;2023-02-03T07:44:21;99788.25;;;8.60;100.00
19576;BME280;41589;51.196;7.074;2023-02-03T07:49:25;99794.31;;;8.58;100.00
19576;BME280;41589;51.196;7.074;2023-02-03T07:54:57;99784.63;;;8.63;100.00
19576;BME280;41589;51.196;7.074;2023-02-03T08:00:06;99791.72;;;8.67;100.00
19576;BME280;41589;51.196;7.074;2023-02-03T08:05:15;99785.97;;;8.75;100.00
19576;BME280;41589;51.196;7.074;2023-02-03T08:10:27;99798.03;;;8.72;100.00
19576;BME280;41589;51.196;7.074;2023-02-03T08:15:34;99806.09;;;8.69;100.00
19576;BME280;41589;51.196;7.074;2023-02-03T08:21:18;99820.56;;;8.68;100.00
19576;BME280;41589;51.196;7.074;2023-02-03T08:32:51;99826.06;;;8.75;100.00
19576;BME280;41589;51.196;7.074;2023-02-03T08:38:06;99816.91;;;8.71;100.00
19576;BME280;41589;51.196;7.074;2023-02-03T08:43:27;99820.88;;;8.74;100.00
19576;BME280;41589;51.196;7.074;2023-02-03T08:48:33;99832.38;;;8.79;100.00
19576;BME280;41589;51.196;7.074;2023-02-03T08:53:43;99824.72;;;8.80;100.00
19576;BME280;41589;51.196;7.074;2023-02-03T08:58:43;99833.69;;;8.75;100.00
19576;BME280;41589;51.196;7.074;2023-02-03T09:04:07;99837.41;;;8.68;100.00
19576;BME280;41589;51.196;7.074;2023-02-03T09:09:43;99834.91;;;8.74;100.00
19576;BME280;41589;51.196;7.074;2023-02-03T09:14:47;99847.41;;;8.69;100.00
19576;BME280;41589;51.196;7.074;2023-02-03T09:19:50;99838.66;;;8.67;100.00
19576;BME280;41589;51.196;7.074;2023-02-03T09:29:54;99846.34;;;8.63;100.00
19576;BME280;41589;51.196;7.074;2023-02-03T09:35:01;99830.81;;;8.58;100.00
19576;BME280;41589;51.196;7.074;2023-02-03T09:40:16;99834.03;;;8.57;100.00
19576;BME280;41589;51.196;7.074;2023-02-03T09:45:49;99835.63;;;8.58;100.00
19576;BME280;41589;51.196;7.074;2023-02-03T09:50:53;99851.22;;;8.59;100.00
19576;BME280;41589;51.196;7.074;2023-02-03T09:55:53;99846.84;;;8.58;100.00
19576;BME280;41589;51.196;7.074;2023-02-03T10:01:11;99840.66;;;8.47;100.00
19576;BME280;41589;51.196;7.074;2023-02-03T10:06:26;99854.16;;;8.52;100.00
19576;BME280;41589;51.196;7.074;2023-02-03T10:17:25;99844.75;;;8.62;100.00
19576;BME280;41589;51.196;7.074;2023-02-03T10:22:32;99845.13;;;8.64;100.00
19576;BME280;41589;51.196;7.074;2023-02-03T10:27:34;99843.97;;;8.61;100.00
19576;BME280;41589;51.196;7.074;2023-02-03T10:33:00;99828.47;;;8.73;100.00
19576;BME280;41589;51.196;7.074;2023-02-03T10:38:03;99821.28;;;8.72;100.00
19576;BME280;41589;51.196;7.074;2023-02-03T10:43:14;99838.84;;;8.76;100.00
19576;BME280;41589;51.196;7.074;2023-02-03T10:48:57;99831.22;;;8.77;100.00
19576;BME280;41589;51.196;7.074;2023-02-03T10:54:47;99842.66;;;8.86;100.00
19576;BME280;41589;51.196;7.074;2023-02-03T11:00:02;99841.88;;;8.85;100.00
19576;BME280;41589;51.196;7.074;2023-02-03T11:10:42;99820.91;;;8.90;100.00
19576;BME280;41589;51.196;7.074;2023-02-03T11:15:57;99830.22;;;8.87;100.00
19576;BME280;41589;51.196;7.074;2023-02-03T11:26:20;99830.47;;;8.92;100.00
19576;BME280;41589;51.196;7.074;2023-02-03T11:31:34;99836.03;;;8.96;100.00
19576;BME280;41589;51.196;7.074;2023-02-03T11:36:35;99853.56;;;9.00;100.00
19576;BME280;41589;51.196;7.074;2023-02-03T11:41:53;99853.88;;;9.06;100.00
19576;BME280;41589;51.196;7.074;2023-02-03T11:47:09;99852.69;;;9.03;100.00
19576;BME280;41589;51.196;7.074;2023-02-03T11:52:44;99842.63;;;9.06;100.00
19576;BME280;41589;51.196;7.074;2023-02-03T11:58:55;99839.97;;;8.98;100.00
19576;BME280;41589;51.196;7.074;2023-02-03T12:26:20;99842.91;;;9.11;100.00
19576;BME280;41589;51.196;7.074;2023-02-03T12:37:08;99848.41;;;9.15;100.00
19576;BME280;41589;51.196;7.074;2023-02-03T12:42:23;99847.03;;;9.23;100.00
19576;BME280;41589;51.196;7.074;2023-02-03T12:47:35;99840.63;;;9.22;100.00
19576;BME280;41589;51.196;7.074;2023-02-03T12:53:38;99839.69;;;9.29;100.00
19576;BME280;41589;51.196;7.074;2023-02-03T13:17:04;99843.81;;;9.41;100.00
19576;BME280;41589;51.196;7.074;2023-02-03T13:22:46;99846.91;;;9.46;100.00
19576;BME280;41589;51.196;7.074;2023-02-03T13:34:50;99850.13;;;9.45;100.00
19576;BME280;41589;51.196;7.074;2023-02-03T13:51:54;99817.31;;;9.58;100.00
19576;BME280;41589;51.196;7.074;2023-02-03T14:04:05;99834.59;;;9.73;100.00
19576;BME280;41589;51.196;7.074;2023-02-03T14:09:36;99844.53;;;9.77;100.00
19576;BME280;41589;51.196;7.074;2023-02-03T14:14:42;99860.00;;;9.85;100.00
19576;BME280;41589;51.196;7.074;2023-02-03T14:20:02;99867.91;;;9.74;100.00
19576;BME280;41589;51.196;7.074;2023-02-03T14:25:40;99844.63;;;9.74;100.00
19576;BME280;41589;51.196;7.074;2023-02-03T14:36:42;99840.06;;;9.64;100.00
19576;BME280;41589;51.196;7.074;2023-02-03T15:10:23;99917.50;;;9.12;100.00
19576;BME280;41589;51.196;7.074;2023-02-03T15:15:30;99928.59;;;8.99;100.00
19576;BME280;41589;51.196;7.074;2023-02-03T15:20:44;99951.13;;;8.76;100.00
19576;BME280;41589;51.196;7.074;2023-02-03T15:25:45;99956.06;;;8.49;100.00
19576;BME280;41589;51.196;7.074;2023-02-03T15:30:51;99977.44;;;8.43;100.00
19576;BME280;41589;51.196;7.074;2023-02-03T15:35:59;99978.25;;;8.39;100.00
19576;BME280;41589;51.196;7.074;2023-02-03T15:41:06;99954.84;;;8.26;100.00
19576;BME280;41589;51.196;7.074;2023-02-03T15:46:15;99969.88;;;8.12;100.00
19576;BME280;41589;51.196;7.074;2023-02-03T15:51:21;99986.22;;;8.18;100.00
19576;BME280;41589;51.196;7.074;2023-02-03T15:56:39;99989.72;;;8.25;100.00
19576;BME280;41589;51.196;7.074;2023-02-03T16:01:41;99984.72;;;8.36;100.00
19576;BME280;41589;51.196;7.074;2023-02-03T16:06:45;99983.81;;;8.43;100.00
19576;BME280;41589;51.196;7.074;2023-02-03T16:11:46;99981.03;;;8.43;100.00
19576;BME280;41589;51.196;7.074;2023-02-03T16:16:50;100000.03;;;8.55;100.00
19576;BME280;41589;51.196;7.074;2023-02-03T16:21:55;100007.31;;;8.53;100.00
19576;BME280;41589;51.196;7.074;2023-02-03T16:32:19;100010.22;;;8.46;100.00
19576;BME280;41589;51.196;7.074;2023-02-03T16:37:42;100026.28;;;8.45;100.00
19576;BME280;41589;51.196;7.074;2023-02-03T16:43:02;100022.69;;;8.45;100.00
19576;BME280;41589;51.196;7.074;2023-02-03T16:48:21;100036.81;;;8.37;100.00
19576;BME280;41589;51.196;7.074;2023-02-03T16:53:42;100045.75;;;8.29;100.00
19576;BME280;41589;51.196;7.074;2023-02-03T16:58:43;100059.78;;;8.29;100.00
19576;BME280;41589;51.196;7.074;2023-02-03T17:03:44;100069.38;;;8.31;100.00
19576;BME280;41589;51.196;7.074;2023-02-03T17:08:45;100064.06;;;8.37;100.00
19576;BME280;41589;51.196;7.074;2023-02-03T17:13:46;100077.13;;;8.24;100.00
19576;BME280;41589;51.196;7.074;2023-02-03T17:18:47;100062.31;;;8.20;100.00
19576;BME280;41589;51.196;7.074;2023-02-03T17:23:48;100086.03;;;8.15;100.00
19576;BME280;41589;51.196;7.074;2023-02-03T17:28:48;100075.66;;;8.12;100.00
19576;BME280;41589;51.196;7.074;2023-02-03T17:33:50;100077.69;;;8.08;100.00
19576;BME280;41589;51.196;7.074;2023-02-03T17:38:53;100077.66;;;8.11;100.00
19576;BME280;41589;51.196;7.074;2023-02-03T17:43:58;100076.81;;;8.15;100.00
19576;BME280;41589;51.196;7.074;2023-02-03T17:48:58;100073.75;;;8.05;100.00
19576;BME280;41589;51.196;7.074;2023-02-03T17:53:58;100098.25;;;8.01;100.00
19576;BME280;41589;51.196;7.074;2023-02-03T17:59:05;100105.97;;;7.94;100.00
19576;BME280;41589;51.196;7.074;2023-02-03T18:04:05;100120.72;;;7.98;100.00
19576;BME280;41589;51.196;7.074;2023-02-03T18:09:08;100110.28;;;7.98;100.00
19576;BME280;41589;51.196;7.074;2023-02-03T18:14:10;100107.47;;;7.98;100.00
19576;BME280;41589;51.196;7.074;2023-02-03T18:19:13;100116.81;;;7.92;100.00
19576;BME280;41589;51.196;7.074;2023-02-03T18:24:14;100121.22;;;7.89;100.00
19576;BME280;41589;51.196;7.074;2023-02-03T18:29:18;100132.13;;;7.83;100.00
19576;BME280;41589;51.196;7.074;2023-02-03T18:34:18;100148.94;;;7.83;100.00
19576;BME280;41589;51.196;7.074;2023-02-03T18:39:18;100138.56;;;7.80;100.00
19576;BME280;41589;51.196;7.074;2023-02-03T18:44:19;100146.19;;;7.80;100.00
19576;BME280;41589;51.196;7.074;2023-02-03T18:49:20;100149.88;;;7.73;100.00
19576;BME280;41589;51.196;7.074;2023-02-03T18:54:20;100155.91;;;7.68;100.00
19576;BME280;41589;51.196;7.074;2023-02-03T18:59:20;100154.31;;;7.71;100.00
19576;BME280;41589;51.196;7.074;2023-02-03T19:04:21;100153.09;;;7.68;100.00
19576;BME280;41589;51.196;7.074;2023-02-03T19:09:22;100150.06;;;7.55;100.00
19576;BME280;41589;51.196;7.074;2023-02-03T19:14:24;100155.66;;;7.59;100.00
19576;BME280;41589;51.196;7.074;2023-02-03T19:19:24;100157.66;;;7.55;100.00
19576;BME280;41589;51.196;7.074;2023-02-03T19:24:25;100148.53;;;7.47;100.00
19576;BME280;41589;51.196;7.074;2023-02-03T19:29:26;100163.75;;;7.50;100.00
19576;BME280;41589;51.196;7.074;2023-02-03T19:34:26;100179.78;;;7.46;100.00
19576;BME280;41589;51.196;7.074;2023-02-03T19:39:26;100180.56;;;7.46;100.00
19576;BME280;41589;51.196;7.074;2023-02-03T19:44:27;100192.13;;;7.52;100.00
19576;BME280;41589;51.196;7.074;2023-02-03T19:49:28;100207.38;;;7.47;100.00
19576;BME280;41589;51.196;7.074;2023-02-03T19:54:28;100215.41;;;7.49;100.00
19576;BME280;41589;51.196;7.074;2023-02-03T19:59:29;100200.97;;;7.47;100.00
19576;BME280;41589;51.196;7.074;2023-02-03T20:04:29;100214.56;;;7.52;100.00
19576;BME280;41589;51.196;7.074;2023-02-03T20:09:30;100238.56;;;7.53;100.00
19576;BME280;41589;51.196;7.074;2023-02-03T20:14:30;100245.69;;;7.61;100.00
19576;BME280;41589;51.196;7.074;2023-02-03T20:19:32;100246.06;;;7.63;100.00
19576;BME280;41589;51.196;7.074;2023-02-03T20:24:32;100238.88;;;7.62;100.00
19576;BME280;41589;51.196;7.074;2023-02-03T20:29:33;100242.41;;;7.66;100.00
19576;BME280;41589;51.196;7.074;2023-02-03T20:34:33;100238.81;;;7.66;100.00
19576;BME280;41589;51.196;7.074;2023-02-03T20:39:35;100245.69;;;7.58;100.00
19576;BME280;41589;51.196;7.074;2023-02-03T20:44:36;100265.22;;;7.68;100.00
19576;BME280;41589;51.196;7.074;2023-02-03T20:49:36;100256.47;;;7.63;100.00
19576;BME280;41589;51.196;7.074;2023-02-03T20:54:36;100259.72;;;7.58;100.00
19576;BME280;41589;51.196;7.074;2023-02-03T20:59:37;100254.09;;;7.61;100.00
19576;BME280;41589;51.196;7.074;2023-02-03T21:04:37;100270.13;;;7.57;100.00
19576;BME280;41589;51.196;7.074;2023-02-03T21:09:57;100276.56;;;7.54;100.00
19576;BME280;41589;51.196;7.074;2023-02-03T21:14:58;100286.19;;;7.53;100.00
19576;BME280;41589;51.196;7.074;2023-02-03T21:19:59;100267.75;;;7.55;100.00
19576;BME280;41589;51.196;7.074;2023-02-03T21:25:00;100272.91;;;7.61;100.00
19576;BME280;41589;51.196;7.074;2023-02-03T21:30:21;100273.34;;;7.55;100.00
19576;BME280;41589;51.196;7.074;2023-02-03T21:35:33;100276.13;;;7.59;100.00
19576;BME280;41589;51.196;7.074;2023-02-03T21:40:37;100277.75;;;7.57;100.00
19576;BME280;41589;51.196;7.074;2023-02-03T21:45:41;100279.31;;;7.61;100.00
19576;BME280;41589;51.196;7.074;2023-02-03T21:50:42;100302.16;;;7.56;100.00
19576;BME280;41589;51.196;7.074;2023-02-03T21:55:42;100303.69;;;7.64;100.00
19576;BME280;41589;51.196;7.074;2023-02-03T22:00:43;100302.53;;;7.58;100.00
19576;BME280;41589;51.196;7.074;2023-02-03T22:05:54;100308.19;;;7.54;100.00
19576;BME280;41589;51.196;7.074;2023-02-03T22:10:55;100308.66;;;7.49;100.00
19576;BME280;41589;51.196;7.074;2023-02-03T22:15:57;100316.69;;;7.44;100.00
19576;BME280;41589;51.196;7.074;2023-02-03T22:21:01;100315.84;;;7.50;100.00
19576;BME280;41589;51.196;7.074;2023-02-03T22:26:07;100329.91;;;7.43;100.00
19576;BME280;41589;51.196;7.074;2023-02-03T22:31:09;100325.84;;;7.51;100.00
19576;BME280;41589;51.196;7.074;2023-02-03T22:36:12;100328.25;;;7.49;100.00
19576;BME280;41589;51.196;7.074;2023-02-03T22:41:13;100329.47;;;7.45;100.00
19576;BME280;41589;51.196;7.074;2023-02-03T22:46:14;100334.69;;;7.43;100.00
19576;BME280;41589;51.196;7.074;2023-02-03T22:51:15;100358.28;;;7.49;100.00
19576;BME280;41589;51.196;7.074;2023-02-03T22:56:16;100360.66;;;7.47;100.00
19576;BME280;41589;51.196;7.074;2023-02-03T23:01:17;100367.53;;;7.42;100.00
19576;BME280;41589;51.196;7.074;2023-02-03T23:06:18;100381.84;;;7.55;100.00
19576;BME280;41589;51.196;7.074;2023-02-03T23:11:18;100370.66;;;7.51;100.00
19576;BME280;41589;51.196;7.074;2023-02-03T23:16:19;100382.28;;;7.46;100.00
19576;BME280;41589;51.196;7.074;2023-02-03T23:21:23;100390.69;;;7.50;100.00
19576;BME280;41589;51.196;7.074;2023-02-03T23:26:24;100380.28;;;7.47;100.00
19576;BME280;41589;51.196;7.074;2023-02-03T23:31:25;100389.53;;;7.44;100.00
19576;BME280;41589;51.196;7.074;2023-02-03T23:36:25;100396.69;;;7.52;100.00
19576;BME280;41589;51.196;7.074;2023-02-03T23:41:25;100395.50;;;7.46;100.00
19576;BME280;41589;51.196;7.074;2023-02-03T23:46:26;100406.75;;;7.42;100.00
19576;BME280;41589;51.196;7.074;2023-02-03T23:51:26;100409.13;;;7.44;100.00
19576;BME280;41589;51.196;7.074;2023-02-03T23:56:27;100407.44;;;7.57;100.00
